Weather at Dune Airpark

Public forecast

Using degrees Celsius for public forecast. Weather courtesy of forecast.io.

Closest aviation weather report (METAR) to Dune Airpark

Report is more than 2 hours old.

Closest report is Taranto-Grottaglie "Marcello Arlotta" Airport, 17.1 nm (31.7 km) SSW.

2024/05/22 17:50 (retrieved 4 hours ago)

LIBG 221750Z 05004KT 030V090 CAVOK 24/12 Q1013

Closest aviation forecast (TAF) to Dune Airpark

Closest forecast is Brindisi Airport, 22.3 nm (41.2 km) ESE.

2024/05/22 18:26 (retrieved 4 hours ago)

TAF LIBR 221700Z 2218/2318 VRB05KT CAVOK BECMG 2302/2304 33012KT